sensor_id;sensor_type;location;lat;lon;timestamp;P1;durP1;ratioP1;P2;durP2;ratioP2
27209;SDS011;14721;42.668;23.386;2023-01-15T16:58:50;34.80;;;13.63;;
27209;SDS011;14721;42.668;23.386;2023-01-15T17:09:42;39.13;;;15.10;;
27209;SDS011;14721;42.668;23.386;2023-01-15T17:12:21;32.00;;;12.53;;
27209;SDS011;14721;42.668;23.386;2023-01-15T17:17:43;24.27;;;9.63;;
27209;SDS011;14721;42.668;23.386;2023-01-15T17:20:10;31.03;;;12.33;;
27209;SDS011;14721;42.668;23.386;2023-01-15T17:22:39;26.97;;;11.13;;
27209;SDS011;14721;42.668;23.386;2023-01-15T17:25:30;33.17;;;13.33;;
27209;SDS011;14721;42.668;23.386;2023-01-15T17:27:59;32.07;;;13.10;;
27209;SDS011;14721;42.668;23.386;2023-01-15T17:30:27;38.70;;;15.43;;
27209;SDS011;14721;42.668;23.386;2023-01-15T17:33:02;37.60;;;14.07;;
27209;SDS011;14721;42.668;23.386;2023-01-15T17:35:30;29.20;;;12.37;;
27209;SDS011;14721;42.668;23.386;2023-01-15T17:37:57;34.97;;;13.90;;
27209;SDS011;14721;42.668;23.386;2023-01-15T17:40:23;37.23;;;15.27;;
27209;SDS011;14721;42.668;23.386;2023-01-15T17:42:51;33.70;;;14.73;;
27209;SDS011;14721;42.668;23.386;2023-01-15T17:45:20;33.23;;;15.37;;
27209;SDS011;14721;42.668;23.386;2023-01-15T17:47:47;36.30;;;13.80;;
27209;SDS011;14721;42.668;23.386;2023-01-15T17:50:14;35.93;;;14.07;;
27209;SDS011;14721;42.668;23.386;2023-01-15T17:52:40;38.33;;;16.50;;
27209;SDS011;14721;42.668;23.386;2023-01-15T17:55:13;35.57;;;14.23;;
27209;SDS011;14721;42.668;23.386;2023-01-15T17:58:01;24.30;;;10.90;;
27209;SDS011;14721;42.668;23.386;2023-01-15T18:00:45;30.80;;;11.97;;
27209;SDS011;14721;42.668;23.386;2023-01-15T18:03:30;25.93;;;10.27;;
27209;SDS011;14721;42.668;23.386;2023-01-15T18:06:15;28.70;;;11.77;;
27209;SDS011;14721;42.668;23.386;2023-01-15T18:08:46;29.10;;;11.53;;
27209;SDS011;14721;42.668;23.386;2023-01-15T18:11:16;30.63;;;11.40;;
27209;SDS011;14721;42.668;23.386;2023-01-15T18:13:42;21.57;;;10.27;;
27209;SDS011;14721;42.668;23.386;2023-01-15T18:16:08;20.20;;;9.13;;
27209;SDS011;14721;42.668;23.386;2023-01-15T18:18:34;19.13;;;8.90;;
27209;SDS011;14721;42.668;23.386;2023-01-15T18:21:01;23.53;;;8.27;;
27209;SDS011;14721;42.668;23.386;2023-01-15T18:23:27;18.77;;;8.80;;
27209;SDS011;14721;42.668;23.386;2023-01-15T18:25:53;18.63;;;8.77;;
27209;SDS011;14721;42.668;23.386;2023-01-15T18:28:19;22.93;;;10.50;;
27209;SDS011;14721;42.668;23.386;2023-01-15T18:30:46;22.80;;;8.93;;
27209;SDS011;14721;42.668;23.386;2023-01-15T18:33:12;22.80;;;9.30;;
27209;SDS011;14721;42.668;23.386;2023-01-15T18:35:39;21.13;;;7.87;;
27209;SDS011;14721;42.668;23.386;2023-01-15T18:38:05;18.27;;;7.73;;
27209;SDS011;14721;42.668;23.386;2023-01-15T18:40:31;23.53;;;9.37;;
27209;SDS011;14721;42.668;23.386;2023-01-15T18:43:00;26.30;;;10.80;;
27209;SDS011;14721;42.668;23.386;2023-01-15T18:45:44;37.03;;;12.93;;
27209;SDS011;14721;42.668;23.386;2023-01-15T18:48:30;29.13;;;10.60;;
27209;SDS011;14721;42.668;23.386;2023-01-15T18:50:55;31.50;;;12.13;;
27209;SDS011;14721;42.668;23.386;2023-01-15T18:53:22;31.27;;;14.07;;
27209;SDS011;14721;42.668;23.386;2023-01-15T18:55:48;31.57;;;12.90;;
27209;SDS011;14721;42.668;23.386;2023-01-15T18:58:14;40.40;;;15.17;;
27209;SDS011;14721;42.668;23.386;2023-01-15T19:00:40;42.63;;;16.93;;
27209;SDS011;14721;42.668;23.386;2023-01-15T19:03:06;40.13;;;15.07;;
27209;SDS011;14721;42.668;23.386;2023-01-15T19:05:32;41.20;;;15.87;;
27209;SDS011;14721;42.668;23.386;2023-01-15T19:07:57;39.97;;;15.63;;
27209;SDS011;14721;42.668;23.386;2023-01-15T19:10:23;37.70;;;14.30;;
27209;SDS011;14721;42.668;23.386;2023-01-15T19:12:48;39.63;;;15.73;;
27209;SDS011;14721;42.668;23.386;2023-01-15T19:15:15;34.87;;;12.60;;
27209;SDS011;14721;42.668;23.386;2023-01-15T19:18:01;39.57;;;16.53;;
27209;SDS011;14721;42.668;23.386;2023-01-15T19:20:46;35.03;;;15.00;;
27209;SDS011;14721;42.668;23.386;2023-01-15T19:23:12;41.40;;;15.57;;
27209;SDS011;14721;42.668;23.386;2023-01-15T19:25:43;34.87;;;14.43;;
27209;SDS011;14721;42.668;23.386;2023-01-15T19:28:12;24.40;;;10.93;;
27209;SDS011;14721;42.668;23.386;2023-01-15T19:30:40;26.17;;;12.30;;
27209;SDS011;14721;42.668;23.386;2023-01-15T19:33:07;28.27;;;14.53;;
27209;SDS011;14721;42.668;23.386;2023-01-15T19:35:33;34.97;;;16.83;;
27209;SDS011;14721;42.668;23.386;2023-01-15T19:38:01;42.67;;;15.27;;
27209;SDS011;14721;42.668;23.386;2023-01-15T19:40:27;37.63;;;16.23;;
27209;SDS011;14721;42.668;23.386;2023-01-15T19:42:54;33.27;;;15.03;;
27209;SDS011;14721;42.668;23.386;2023-01-15T19:45:41;31.23;;;13.50;;
27209;SDS011;14721;42.668;23.386;2023-01-15T19:48:27;28.70;;;12.23;;
27209;SDS011;14721;42.668;23.386;2023-01-15T19:51:11;29.83;;;13.00;;
27209;SDS011;14721;42.668;23.386;2023-01-15T19:53:38;29.80;;;13.23;;
27209;SDS011;14721;42.668;23.386;2023-01-15T19:56:04;30.07;;;11.43;;
27209;SDS011;14721;42.668;23.386;2023-01-15T19:58:31;30.50;;;12.83;;
27209;SDS011;14721;42.668;23.386;2023-01-15T20:00:58;25.80;;;10.77;;
27209;SDS011;14721;42.668;23.386;2023-01-15T20:03:24;31.67;;;12.87;;
27209;SDS011;14721;42.668;23.386;2023-01-15T20:05:50;28.47;;;11.33;;
27209;SDS011;14721;42.668;23.386;2023-01-15T20:08:16;28.50;;;13.03;;
27209;SDS011;14721;42.668;23.386;2023-01-15T20:10:46;28.17;;;11.93;;
27209;SDS011;14721;42.668;23.386;2023-01-15T20:13:18;28.67;;;11.77;;
27209;SDS011;14721;42.668;23.386;2023-01-15T20:16:04;29.50;;;13.10;;
27209;SDS011;14721;42.668;23.386;2023-01-15T20:18:38;23.20;;;10.53;;
27209;SDS011;14721;42.668;23.386;2023-01-15T20:21:04;29.30;;;12.03;;
27209;SDS011;14721;42.668;23.386;2023-01-15T20:23:30;26.43;;;10.97;;
27209;SDS011;14721;42.668;23.386;2023-01-15T20:26:03;27.93;;;12.00;;
27209;SDS011;14721;42.668;23.386;2023-01-15T20:28:31;28.43;;;12.07;;
27209;SDS011;14721;42.668;23.386;2023-01-15T20:30:59;28.23;;;11.87;;
27209;SDS011;14721;42.668;23.386;2023-01-15T20:33:26;33.27;;;12.27;;
27209;SDS011;14721;42.668;23.386;2023-01-15T20:35:51;32.33;;;12.67;;
27209;SDS011;14721;42.668;23.386;2023-01-15T20:38:18;30.13;;;12.90;;
27209;SDS011;14721;42.668;23.386;2023-01-15T20:40:45;26.93;;;12.20;;
27209;SDS011;14721;42.668;23.386;2023-01-15T20:43:11;27.63;;;10.80;;
27209;SDS011;14721;42.668;23.386;2023-01-15T20:46:05;29.97;;;12.37;;
27209;SDS011;14721;42.668;23.386;2023-01-15T20:48:35;30.30;;;13.17;;
27209;SDS011;14721;42.668;23.386;2023-01-15T20:51:19;25.77;;;12.50;;
27209;SDS011;14721;42.668;23.386;2023-01-15T20:53:44;26.17;;;11.53;;
27209;SDS011;14721;42.668;23.386;2023-01-15T20:56:12;31.83;;;12.07;;
27209;SDS011;14721;42.668;23.386;2023-01-15T20:58:39;36.10;;;13.93;;
27209;SDS011;14721;42.668;23.386;2023-01-15T21:01:06;37.27;;;14.47;;
27209;SDS011;14721;42.668;23.386;2023-01-15T21:03:34;33.97;;;12.87;;
27209;SDS011;14721;42.668;23.386;2023-01-15T21:06:03;29.10;;;12.87;;
27209;SDS011;14721;42.668;23.386;2023-01-15T21:08:29;35.90;;;15.43;;
27209;SDS011;14721;42.668;23.386;2023-01-15T21:10:57;43.97;;;17.40;;
27209;SDS011;14721;42.668;23.386;2023-01-15T21:13:23;40.87;;;17.47;;
27209;SDS011;14721;42.668;23.386;2023-01-15T21:15:56;36.87;;;18.57;;
27209;SDS011;14721;42.668;23.386;2023-01-15T21:18:25;44.87;;;20.27;;
27209;SDS011;14721;42.668;23.386;2023-01-15T21:20:51;46.30;;;19.57;;
27209;SDS011;14721;42.668;23.386;2023-01-15T21:23:17;37.63;;;20.07;;
27209;SDS011;14721;42.668;23.386;2023-01-15T21:25:43;52.07;;;20.93;;
27209;SDS011;14721;42.668;23.386;2023-01-15T21:28:08;41.07;;;17.13;;
27209;SDS011;14721;42.668;23.386;2023-01-15T21:30:34;47.10;;;19.63;;
27209;SDS011;14721;42.668;23.386;2023-01-15T21:32:59;52.63;;;21.13;;
27209;SDS011;14721;42.668;23.386;2023-01-15T21:35:26;47.97;;;19.80;;
27209;SDS011;14721;42.668;23.386;2023-01-15T21:37:51;42.80;;;19.97;;
27209;SDS011;14721;42.668;23.386;2023-01-15T21:40:17;49.13;;;19.73;;
27209;SDS011;14721;42.668;23.386;2023-01-15T21:42:43;46.33;;;18.10;;
27209;SDS011;14721;42.668;23.386;2023-01-15T21:45:27;46.10;;;21.00;;
27209;SDS011;14721;42.668;23.386;2023-01-15T21:47:52;41.53;;;18.67;;
27209;SDS011;14721;42.668;23.386;2023-01-15T21:50:20;49.10;;;19.40;;
27209;SDS011;14721;42.668;23.386;2023-01-15T21:52:49;48.80;;;21.40;;
27209;SDS011;14721;42.668;23.386;2023-01-15T21:55:16;54.03;;;20.67;;
27209;SDS011;14721;42.668;23.386;2023-01-15T21:57:42;44.83;;;19.70;;
27209;SDS011;14721;42.668;23.386;2023-01-15T22:00:10;49.17;;;19.93;;
27209;SDS011;14721;42.668;23.386;2023-01-15T22:02:37;41.33;;;19.17;;
27209;SDS011;14721;42.668;23.386;2023-01-15T22:05:05;39.87;;;18.97;;
27209;SDS011;14721;42.668;23.386;2023-01-15T22:07:32;47.67;;;20.27;;
27209;SDS011;14721;42.668;23.386;2023-01-15T22:10:01;44.17;;;18.20;;
27209;SDS011;14721;42.668;23.386;2023-01-15T22:12:27;36.30;;;18.83;;
27209;SDS011;14721;42.668;23.386;2023-01-15T22:14:53;47.43;;;18.27;;
27209;SDS011;14721;42.668;23.386;2023-01-15T22:17:21;49.90;;;19.47;;
27209;SDS011;14721;42.668;23.386;2023-01-15T22:19:47;41.77;;;19.57;;
27209;SDS011;14721;42.668;23.386;2023-01-15T22:22:17;47.50;;;19.73;;
27209;SDS011;14721;42.668;23.386;2023-01-15T22:24:43;47.43;;;19.73;;
27209;SDS011;14721;42.668;23.386;2023-01-15T22:27:12;41.00;;;19.80;;
27209;SDS011;14721;42.668;23.386;2023-01-15T22:29:40;45.07;;;20.27;;
27209;SDS011;14721;42.668;23.386;2023-01-15T22:32:08;44.67;;;20.47;;
27209;SDS011;14721;42.668;23.386;2023-01-15T22:34:37;45.70;;;21.70;;
27209;SDS011;14721;42.668;23.386;2023-01-15T22:37:03;51.53;;;20.37;;
27209;SDS011;14721;42.668;23.386;2023-01-15T22:39:28;45.33;;;20.93;;
27209;SDS011;14721;42.668;23.386;2023-01-15T22:41:55;45.90;;;20.27;;
27209;SDS011;14721;42.668;23.386;2023-01-15T22:44:39;47.07;;;21.40;;
27209;SDS011;14721;42.668;23.386;2023-01-15T22:47:08;45.00;;;20.23;;
27209;SDS011;14721;42.668;23.386;2023-01-15T22:49:33;48.60;;;20.70;;
27209;SDS011;14721;42.668;23.386;2023-01-15T22:51:59;41.20;;;20.33;;
27209;SDS011;14721;42.668;23.386;2023-01-15T22:54:24;49.33;;;20.27;;
27209;SDS011;14721;42.668;23.386;2023-01-15T22:56:51;40.07;;;17.93;;
27209;SDS011;14721;42.668;23.386;2023-01-15T22:59:20;45.73;;;19.60;;
27209;SDS011;14721;42.668;23.386;2023-01-15T23:01:48;42.73;;;18.87;;
27209;SDS011;14721;42.668;23.386;2023-01-15T23:04:19;53.27;;;21.23;;
27209;SDS011;14721;42.668;23.386;2023-01-15T23:06:48;44.03;;;18.30;;
27209;SDS011;14721;42.668;23.386;2023-01-15T23:09:16;50.27;;;20.47;;
27209;SDS011;14721;42.668;23.386;2023-01-15T23:11:45;38.13;;;16.87;;
27209;SDS011;14721;42.668;23.386;2023-01-15T23:14:13;39.17;;;17.57;;
27209;SDS011;14721;42.668;23.386;2023-01-15T23:16:40;41.20;;;17.77;;
27209;SDS011;14721;42.668;23.386;2023-01-15T23:19:05;42.17;;;18.10;;
27209;SDS011;14721;42.668;23.386;2023-01-15T23:21:31;38.63;;;16.63;;
27209;SDS011;14721;42.668;23.386;2023-01-15T23:23:58;41.97;;;17.37;;
27209;SDS011;14721;42.668;23.386;2023-01-15T23:26:26;43.50;;;19.03;;
27209;SDS011;14721;42.668;23.386;2023-01-15T23:28:54;37.03;;;16.57;;
27209;SDS011;14721;42.668;23.386;2023-01-15T23:31:23;47.27;;;18.53;;
27209;SDS011;14721;42.668;23.386;2023-01-15T23:33:49;46.63;;;17.87;;
27209;SDS011;14721;42.668;23.386;2023-01-15T23:36:15;41.50;;;18.27;;
27209;SDS011;14721;42.668;23.386;2023-01-15T23:38:42;44.10;;;18.77;;
27209;SDS011;14721;42.668;23.386;2023-01-15T23:41:12;35.27;;;14.73;;
27209;SDS011;14721;42.668;23.386;2023-01-15T23:43:41;40.77;;;16.00;;
27209;SDS011;14721;42.668;23.386;2023-01-15T23:46:26;40.60;;;17.73;;
27209;SDS011;14721;42.668;23.386;2023-01-15T23:49:08;42.90;;;17.90;;
27209;SDS011;14721;42.668;23.386;2023-01-15T23:51:36;40.37;;;16.50;;
27209;SDS011;14721;42.668;23.386;2023-01-15T23:54:04;41.03;;;19.97;;
27209;SDS011;14721;42.668;23.386;2023-01-15T23:56:30;46.67;;;19.23;;
27209;SDS011;14721;42.668;23.386;2023-01-15T23:58:57;38.87;;;17.27;;
